sensor_id;sensor_type;location;lat;lon;timestamp;temperature;humidity
68804;SHT31;55787;52.678;13.314;2023-01-01T00:01:24;15.70;65.31
68804;SHT31;55787;52.678;13.314;2023-01-01T00:03:54;15.98;63.14
68804;SHT31;55787;52.678;13.314;2023-01-01T00:06:21;15.88;63.70
68804;SHT31;55787;52.678;13.314;2023-01-01T00:08:48;15.88;63.38
68804;SHT31;55787;52.678;13.314;2023-01-01T00:11:35;15.77;64.14
68804;SHT31;55787;52.678;13.314;2023-01-01T00:14:01;15.70;64.50
68804;SHT31;55787;52.678;13.314;2023-01-01T00:16:37;15.72;63.85
68804;SHT31;55787;52.678;13.314;2023-01-01T00:19:04;15.71;63.71
68804;SHT31;55787;52.678;13.314;2023-01-01T00:21:31;15.65;64.08
68804;SHT31;55787;52.678;13.314;2023-01-01T00:23:57;15.68;63.98
68804;SHT31;55787;52.678;13.314;2023-01-01T00:26:24;15.58;64.14
68804;SHT31;55787;52.678;13.314;2023-01-01T00:29:00;15.47;64.70
68804;SHT31;55787;52.678;13.314;2023-01-01T00:31:27;15.61;63.78
68804;SHT31;55787;52.678;13.314;2023-01-01T00:33:54;15.72;62.84
68804;SHT31;55787;52.678;13.314;2023-01-01T00:36:24;15.68;63.22
68804;SHT31;55787;52.678;13.314;2023-01-01T00:38:54;15.61;63.54
68804;SHT31;55787;52.678;13.314;2023-01-01T00:41:21;15.68;63.31
68804;SHT31;55787;52.678;13.314;2023-01-01T00:43:48;15.61;63.27
68804;SHT31;55787;52.678;13.314;2023-01-01T00:46:16;15.46;64.37
68804;SHT31;55787;52.678;13.314;2023-01-01T00:48:44;15.50;63.49
68804;SHT31;55787;52.678;13.314;2023-01-01T00:51:11;15.30;64.15
68804;SHT31;55787;52.678;13.314;2023-01-01T00:53:39;15.20;64.52
68804;SHT31;55787;52.678;13.314;2023-01-01T00:56:07;15.41;63.31
68804;SHT31;55787;52.678;13.314;2023-01-01T00:58:34;15.50;63.01
68804;SHT31;55787;52.678;13.314;2023-01-01T01:01:01;15.43;63.21
68804;SHT31;55787;52.678;13.314;2023-01-01T01:03:28;15.53;62.81
68804;SHT31;55787;52.678;13.314;2023-01-01T01:08:30;15.36;63.32
68804;SHT31;55787;52.678;13.314;2023-01-01T01:11:09;15.40;63.21
68804;SHT31;55787;52.678;13.314;2023-01-01T01:13:37;15.33;63.19
68804;SHT31;55787;52.678;13.314;2023-01-01T01:16:15;15.22;63.50
68804;SHT31;55787;52.678;13.314;2023-01-01T01:18:43;15.22;63.39
68804;SHT31;55787;52.678;13.314;2023-01-01T01:21:10;15.29;62.96
68804;SHT31;55787;52.678;13.314;2023-01-01T01:23:39;15.32;62.83
68804;SHT31;55787;52.678;13.314;2023-01-01T01:28:37;15.27;62.99
68804;SHT31;55787;52.678;13.314;2023-01-01T01:31:12;15.23;63.07
68804;SHT31;55787;52.678;13.314;2023-01-01T01:33:42;15.46;61.92
68804;SHT31;55787;52.678;13.314;2023-01-01T01:36:09;15.40;62.15
68804;SHT31;55787;52.678;13.314;2023-01-01T01:38:36;15.29;62.43
68804;SHT31;55787;52.678;13.314;2023-01-01T01:41:03;15.13;62.95
68804;SHT31;55787;52.678;13.314;2023-01-01T01:46:09;15.14;63.22
68804;SHT31;55787;52.678;13.314;2023-01-01T01:48:40;15.32;61.88
68804;SHT31;55787;52.678;13.314;2023-01-01T01:51:09;15.29;61.98
68804;SHT31;55787;52.678;13.314;2023-01-01T01:53:41;15.23;62.20
68804;SHT31;55787;52.678;13.314;2023-01-01T01:56:14;15.41;61.31
68804;SHT31;55787;52.678;13.314;2023-01-01T01:58:41;15.30;61.82
68804;SHT31;55787;52.678;13.314;2023-01-01T02:01:08;15.19;62.67
68804;SHT31;55787;52.678;13.314;2023-01-01T02:03:39;15.29;61.70
68804;SHT31;55787;52.678;13.314;2023-01-01T02:06:07;15.22;62.00
68804;SHT31;55787;52.678;13.314;2023-01-01T02:08:34;15.19;62.38
68804;SHT31;55787;52.678;13.314;2023-01-01T02:11:01;15.16;62.00
68804;SHT31;55787;52.678;13.314;2023-01-01T02:13:28;15.37;61.13
68804;SHT31;55787;52.678;13.314;2023-01-01T02:16:21;15.30;61.57
68804;SHT31;55787;52.678;13.314;2023-01-01T02:18:56;15.50;60.80
68804;SHT31;55787;52.678;13.314;2023-01-01T02:21:30;15.44;61.29
68804;SHT31;55787;52.678;13.314;2023-01-01T02:31:48;15.50;60.96
68804;SHT31;55787;52.678;13.314;2023-01-01T02:34:18;15.49;60.90
68804;SHT31;55787;52.678;13.314;2023-01-01T02:36:49;15.54;60.69
68804;SHT31;55787;52.678;13.314;2023-01-01T02:39:20;15.49;60.93
68804;SHT31;55787;52.678;13.314;2023-01-01T02:41:51;15.32;61.31
68804;SHT31;55787;52.678;13.314;2023-01-01T02:44:21;15.34;61.16
68804;SHT31;55787;52.678;13.314;2023-01-01T02:46:50;15.33;61.21
68804;SHT31;55787;52.678;13.314;2023-01-01T02:49:17;15.36;61.14
68804;SHT31;55787;52.678;13.314;2023-01-01T02:52:06;15.30;61.24
68804;SHT31;55787;52.678;13.314;2023-01-01T02:54:58;15.26;61.60
68804;SHT31;55787;52.678;13.314;2023-01-01T02:57:35;15.18;61.54
68804;SHT31;55787;52.678;13.314;2023-01-01T03:00:07;15.16;61.53
68804;SHT31;55787;52.678;13.314;2023-01-01T03:03:29;15.09;61.80
68804;SHT31;55787;52.678;13.314;2023-01-01T03:06:11;15.20;61.14
68804;SHT31;55787;52.678;13.314;2023-01-01T03:12:22;15.14;61.06
68804;SHT31;55787;52.678;13.314;2023-01-01T03:15:00;15.07;61.60
68804;SHT31;55787;52.678;13.314;2023-01-01T03:17:32;14.98;61.75
68804;SHT31;55787;52.678;13.314;2023-01-01T03:20:06;14.91;61.99
68804;SHT31;55787;52.678;13.314;2023-01-01T03:22:35;14.83;62.07
68804;SHT31;55787;52.678;13.314;2023-01-01T03:25:06;14.75;62.48
68804;SHT31;55787;52.678;13.314;2023-01-01T03:27:43;14.76;62.32
68804;SHT31;55787;52.678;13.314;2023-01-01T03:30:12;14.71;62.64
68804;SHT31;55787;52.678;13.314;2023-01-01T03:32:43;14.75;62.92
68804;SHT31;55787;52.678;13.314;2023-01-01T03:44:01;14.86;62.71
68804;SHT31;55787;52.678;13.314;2023-01-01T03:46:32;14.79;62.69
68804;SHT31;55787;52.678;13.314;2023-01-01T03:49:01;14.92;62.03
68804;SHT31;55787;52.678;13.314;2023-01-01T03:53:59;14.72;62.83
68804;SHT31;55787;52.678;13.314;2023-01-01T03:56:41;14.69;62.87
68804;SHT31;55787;52.678;13.314;2023-01-01T03:59:23;14.69;62.88
68804;SHT31;55787;52.678;13.314;2023-01-01T04:01:54;14.60;62.99
68804;SHT31;55787;52.678;13.314;2023-01-01T04:04:24;14.75;62.53
68804;SHT31;55787;52.678;13.314;2023-01-01T04:06:52;14.60;63.25
68804;SHT31;55787;52.678;13.314;2023-01-01T04:09:24;14.44;64.00
68804;SHT31;55787;52.678;13.314;2023-01-01T04:11:54;14.41;64.11
68804;SHT31;55787;52.678;13.314;2023-01-01T04:14:39;14.23;64.83
68804;SHT31;55787;52.678;13.314;2023-01-01T04:17:07;14.52;63.56
68804;SHT31;55787;52.678;13.314;2023-01-01T04:19:34;14.61;63.26
68804;SHT31;55787;52.678;13.314;2023-01-01T04:22:02;14.68;63.08
68804;SHT31;55787;52.678;13.314;2023-01-01T04:24:29;14.54;63.63
68804;SHT31;55787;52.678;13.314;2023-01-01T04:26:56;14.58;63.48
68804;SHT31;55787;52.678;13.314;2023-01-01T04:29:23;14.55;63.36
68804;SHT31;55787;52.678;13.314;2023-01-01T04:31:49;14.49;64.29
68804;SHT31;55787;52.678;13.314;2023-01-01T04:34:16;14.51;63.56
68804;SHT31;55787;52.678;13.314;2023-01-01T04:36:43;14.52;63.43
68804;SHT31;55787;52.678;13.314;2023-01-01T04:39:10;14.42;63.63
68804;SHT31;55787;52.678;13.314;2023-01-01T04:41:36;14.54;63.38
68804;SHT31;55787;52.678;13.314;2023-01-01T04:44:03;14.51;63.45
68804;SHT31;55787;52.678;13.314;2023-01-01T04:46:30;14.51;63.49
68804;SHT31;55787;52.678;13.314;2023-01-01T04:48:56;14.68;62.66
68804;SHT31;55787;52.678;13.314;2023-01-01T04:51:23;14.55;63.46
68804;SHT31;55787;52.678;13.314;2023-01-01T04:53:50;14.55;63.00
68804;SHT31;55787;52.678;13.314;2023-01-01T04:56:18;14.52;63.18
68804;SHT31;55787;52.678;13.314;2023-01-01T04:58:46;14.60;62.86
68804;SHT31;55787;52.678;13.314;2023-01-01T05:01:24;14.45;63.66
68804;SHT31;55787;52.678;13.314;2023-01-01T05:03:51;14.49;63.43
68804;SHT31;55787;52.678;13.314;2023-01-01T05:06:19;14.55;62.88
68804;SHT31;55787;52.678;13.314;2023-01-01T05:08:48;14.72;62.24
68804;SHT31;55787;52.678;13.314;2023-01-01T05:11:20;14.68;62.44
68804;SHT31;55787;52.678;13.314;2023-01-01T05:13:48;14.71;62.38
68804;SHT31;55787;52.678;13.314;2023-01-01T05:16:20;14.64;62.30
68804;SHT31;55787;52.678;13.314;2023-01-01T05:18:47;14.65;62.38
68804;SHT31;55787;52.678;13.314;2023-01-01T05:21:26;14.72;61.85
68804;SHT31;55787;52.678;13.314;2023-01-01T05:23:58;14.75;61.65
68804;SHT31;55787;52.678;13.314;2023-01-01T05:26:27;14.89;60.97
68804;SHT31;55787;52.678;13.314;2023-01-01T05:28:55;14.91;60.82
68804;SHT31;55787;52.678;13.314;2023-01-01T05:31:24;14.89;61.05
68804;SHT31;55787;52.678;13.314;2023-01-01T05:33:52;14.85;60.83
68804;SHT31;55787;52.678;13.314;2023-01-01T05:36:21;14.83;61.00
68804;SHT31;55787;52.678;13.314;2023-01-01T05:38:49;15.04;59.86
68804;SHT31;55787;52.678;13.314;2023-01-01T05:41:17;15.02;60.48
68804;SHT31;55787;52.678;13.314;2023-01-01T05:43:44;15.04;59.82
68804;SHT31;55787;52.678;13.314;2023-01-01T05:46:17;15.06;59.86
68804;SHT31;55787;52.678;13.314;2023-01-01T05:48:45;15.06;60.08
68804;SHT31;55787;52.678;13.314;2023-01-01T05:51:15;15.07;59.74
68804;SHT31;55787;52.678;13.314;2023-01-01T05:53:41;14.93;60.45
68804;SHT31;55787;52.678;13.314;2023-01-01T05:56:11;14.98;60.46
68804;SHT31;55787;52.678;13.314;2023-01-01T05:58:38;14.88;60.44
68804;SHT31;55787;52.678;13.314;2023-01-01T06:01:15;15.03;59.96
68804;SHT31;55787;52.678;13.314;2023-01-01T06:03:43;15.10;59.70
68804;SHT31;55787;52.678;13.314;2023-01-01T06:06:12;15.19;59.27
68804;SHT31;55787;52.678;13.314;2023-01-01T06:08:41;15.20;59.38
68804;SHT31;55787;52.678;13.314;2023-01-01T06:11:10;15.18;59.53
68804;SHT31;55787;52.678;13.314;2023-01-01T06:13:37;15.12;59.88
68804;SHT31;55787;52.678;13.314;2023-01-01T06:16:04;15.09;60.14
68804;SHT31;55787;52.678;13.314;2023-01-01T06:18:33;15.03;59.96
68804;SHT31;55787;52.678;13.314;2023-01-01T06:21:21;14.98;60.38
68804;SHT31;55787;52.678;13.314;2023-01-01T06:23:48;15.07;59.68
68804;SHT31;55787;52.678;13.314;2023-01-01T06:26:15;15.09;59.61
68804;SHT31;55787;52.678;13.314;2023-01-01T06:28:43;15.03;60.07
68804;SHT31;55787;52.678;13.314;2023-01-01T06:31:12;15.10;59.38
68804;SHT31;55787;52.678;13.314;2023-01-01T06:33:40;15.10;59.44
68804;SHT31;55787;52.678;13.314;2023-01-01T06:36:09;15.06;59.62
68804;SHT31;55787;52.678;13.314;2023-01-01T06:38:42;15.13;59.20
68804;SHT31;55787;52.678;13.314;2023-01-01T06:41:11;15.06;59.50
68804;SHT31;55787;52.678;13.314;2023-01-01T06:43:38;15.03;59.61
68804;SHT31;55787;52.678;13.314;2023-01-01T06:48:33;15.12;59.40
68804;SHT31;55787;52.678;13.314;2023-01-01T06:51:08;15.00;59.59
68804;SHT31;55787;52.678;13.314;2023-01-01T06:53:35;14.89;60.25
68804;SHT31;55787;52.678;13.314;2023-01-01T06:56:03;15.02;59.53
68804;SHT31;55787;52.678;13.314;2023-01-01T06:58:29;14.93;60.08
68804;SHT31;55787;52.678;13.314;2023-01-01T07:01:15;14.98;59.87
68804;SHT31;55787;52.678;13.314;2023-01-01T07:03:44;14.89;60.20
68804;SHT31;55787;52.678;13.314;2023-01-01T07:06:15;14.98;59.76
68804;SHT31;55787;52.678;13.314;2023-01-01T07:08:41;14.88;60.59
68804;SHT31;55787;52.678;13.314;2023-01-01T07:11:08;14.82;60.26
68804;SHT31;55787;52.678;13.314;2023-01-01T07:13:35;14.79;60.69
68804;SHT31;55787;52.678;13.314;2023-01-01T07:16:01;14.76;60.64
68804;SHT31;55787;52.678;13.314;2023-01-01T07:18:37;14.75;60.90
68804;SHT31;55787;52.678;13.314;2023-01-01T07:21:05;14.83;60.44
68804;SHT31;55787;52.678;13.314;2023-01-01T07:23:34;14.92;60.20
68804;SHT31;55787;52.678;13.314;2023-01-01T07:26:01;14.78;61.06
68804;SHT31;55787;52.678;13.314;2023-01-01T07:28:27;14.89;60.49
68804;SHT31;55787;52.678;13.314;2023-01-01T07:30:54;14.93;60.52
68804;SHT31;55787;52.678;13.314;2023-01-01T07:33:22;14.86;60.81
68804;SHT31;55787;52.678;13.314;2023-01-01T07:35:49;14.86;60.84
68804;SHT31;55787;52.678;13.314;2023-01-01T07:38:16;14.86;60.66
68804;SHT31;55787;52.678;13.314;2023-01-01T07:40:43;14.85;60.91
68804;SHT31;55787;52.678;13.314;2023-01-01T07:43:10;14.86;61.06
68804;SHT31;55787;52.678;13.314;2023-01-01T07:45:38;14.86;60.92
68804;SHT31;55787;52.678;13.314;2023-01-01T07:48:05;14.85;61.13
68804;SHT31;55787;52.678;13.314;2023-01-01T07:50:32;14.82;61.20
68804;SHT31;55787;52.678;13.314;2023-01-01T07:52:59;14.85;61.22
68804;SHT31;55787;52.678;13.314;2023-01-01T07:55:26;14.71;61.71
68804;SHT31;55787;52.678;13.314;2023-01-01T07:57:52;14.73;61.89
68804;SHT31;55787;52.678;13.314;2023-01-01T08:00:20;14.67;61.89
68804;SHT31;55787;52.678;13.314;2023-01-01T08:02:47;14.60;62.46
68804;SHT31;55787;52.678;13.314;2023-01-01T08:05:14;14.71;61.69
68804;SHT31;55787;52.678;13.314;2023-01-01T08:07:49;14.72;61.76
68804;SHT31;55787;52.678;13.314;2023-01-01T08:10:17;14.69;61.88
68804;SHT31;55787;52.678;13.314;2023-01-01T08:12:45;14.64;62.60
68804;SHT31;55787;52.678;13.314;2023-01-01T08:15:13;14.65;62.64
68804;SHT31;55787;52.678;13.314;2023-01-01T08:17:40;14.64;62.39
68804;SHT31;55787;52.678;13.314;2023-01-01T08:20:12;14.73;62.22
68804;SHT31;55787;52.678;13.314;2023-01-01T08:22:39;14.75;62.40
68804;SHT31;55787;52.678;13.314;2023-01-01T08:25:06;14.81;61.85
68804;SHT31;55787;52.678;13.314;2023-01-01T08:27:33;14.79;62.05
68804;SHT31;55787;52.678;13.314;2023-01-01T08:30:00;14.72;62.60
68804;SHT31;55787;52.678;13.314;2023-01-01T08:32:27;14.73;62.39
68804;SHT31;55787;52.678;13.314;2023-01-01T08:34:54;14.78;62.30
68804;SHT31;55787;52.678;13.314;2023-01-01T08:37:21;14.83;62.36
68804;SHT31;55787;52.678;13.314;2023-01-01T08:39:50;14.79;62.56
68804;SHT31;55787;52.678;13.314;2023-01-01T08:42:18;14.81;62.64
68804;SHT31;55787;52.678;13.314;2023-01-01T08:44:45;14.79;62.96
68804;SHT31;55787;52.678;13.314;2023-01-01T08:47:20;14.75;62.85
68804;SHT31;55787;52.678;13.314;2023-01-01T08:49:47;14.75;62.62
68804;SHT31;55787;52.678;13.314;2023-01-01T08:52:14;14.85;62.54
68804;SHT31;55787;52.678;13.314;2023-01-01T08:54:41;14.86;62.65
68804;SHT31;55787;52.678;13.314;2023-01-01T08:57:09;14.83;63.03
68804;SHT31;55787;52.678;13.314;2023-01-01T08:59:35;14.83;63.14
68804;SHT31;55787;52.678;13.314;2023-01-01T09:02:02;14.88;62.68
68804;SHT31;55787;52.678;13.314;2023-01-01T09:04:30;14.85;63.30
68804;SHT31;55787;52.678;13.314;2023-01-01T09:06:56;14.85;63.41
68804;SHT31;55787;52.678;13.314;2023-01-01T09:09:23;14.88;63.11
68804;SHT31;55787;52.678;13.314;2023-01-01T09:11:57;14.93;63.02
68804;SHT31;55787;52.678;13.314;2023-01-01T09:14:29;14.99;62.57
68804;SHT31;55787;52.678;13.314;2023-01-01T09:16:56;14.99;63.02
68804;SHT31;55787;52.678;13.314;2023-01-01T09:19:23;14.99;62.91
68804;SHT31;55787;52.678;13.314;2023-01-01T09:21:49;15.00;62.88
68804;SHT31;55787;52.678;13.314;2023-01-01T09:24:16;15.02;62.86
68804;SHT31;55787;52.678;13.314;2023-01-01T09:26:44;15.02;62.85
68804;SHT31;55787;52.678;13.314;2023-01-01T09:29:11;15.00;62.94
68804;SHT31;55787;52.678;13.314;2023-01-01T09:31:37;15.03;63.27
68804;SHT31;55787;52.678;13.314;2023-01-01T09:34:04;15.07;62.84
68804;SHT31;55787;52.678;13.314;2023-01-01T09:36:32;15.09;62.70
68804;SHT31;55787;52.678;13.314;2023-01-01T09:38:59;15.16;62.54
68804;SHT31;55787;52.678;13.314;2023-01-01T09:44:34;15.22;62.39
68804;SHT31;55787;52.678;13.314;2023-01-01T09:49:45;15.26;62.32
68804;SHT31;55787;52.678;13.314;2023-01-01T09:52:15;15.27;62.71
68804;SHT31;55787;52.678;13.314;2023-01-01T09:54:54;15.27;62.72
68804;SHT31;55787;52.678;13.314;2023-01-01T09:57:27;15.24;62.68
68804;SHT31;55787;52.678;13.314;2023-01-01T09:59:56;15.30;62.90
68804;SHT31;55787;52.678;13.314;2023-01-01T10:05:25;15.37;62.59
68804;SHT31;55787;52.678;13.314;2023-01-01T10:08:06;15.44;62.35
68804;SHT31;55787;52.678;13.314;2023-01-01T10:10:40;15.46;62.44
68804;SHT31;55787;52.678;13.314;2023-01-01T10:13:40;15.37;62.76
68804;SHT31;55787;52.678;13.314;2023-01-01T10:18:55;15.41;62.82
68804;SHT31;55787;52.678;13.314;2023-01-01T10:21:26;15.47;62.39
68804;SHT31;55787;52.678;13.314;2023-01-01T10:23:59;15.49;62.65
68804;SHT31;55787;52.678;13.314;2023-01-01T10:26:29;15.47;62.22
68804;SHT31;55787;52.678;13.314;2023-01-01T10:29:11;15.50;61.77
68804;SHT31;55787;52.678;13.314;2023-01-01T10:31:44;15.51;61.88
68804;SHT31;55787;52.678;13.314;2023-01-01T10:34:18;15.57;61.83
68804;SHT31;55787;52.678;13.314;2023-01-01T10:36:45;15.53;62.27
68804;SHT31;55787;52.678;13.314;2023-01-01T10:39:15;15.55;62.06
68804;SHT31;55787;52.678;13.314;2023-01-01T10:41:43;15.54;62.22
68804;SHT31;55787;52.678;13.314;2023-01-01T10:44:11;15.64;62.60
68804;SHT31;55787;52.678;13.314;2023-01-01T10:46:43;15.57;62.44
68804;SHT31;55787;52.678;13.314;2023-01-01T10:49:12;15.68;62.82
68804;SHT31;55787;52.678;13.314;2023-01-01T10:51:45;15.70;62.10
68804;SHT31;55787;52.678;13.314;2023-01-01T10:54:32;15.70;61.86
68804;SHT31;55787;52.678;13.314;2023-01-01T10:57:33;15.65;61.95
68804;SHT31;55787;52.678;13.314;2023-01-01T11:00:19;15.68;61.50
68804;SHT31;55787;52.678;13.314;2023-01-01T11:03:04;15.72;62.09
68804;SHT31;55787;52.678;13.314;2023-01-01T11:05:31;15.61;62.38
68804;SHT31;55787;52.678;13.314;2023-01-01T11:07:58;15.65;62.31
68804;SHT31;55787;52.678;13.314;2023-01-01T11:10:25;15.61;61.92
68804;SHT31;55787;52.678;13.314;2023-01-01T11:12:54;15.57;62.27
68804;SHT31;55787;52.678;13.314;2023-01-01T11:15:35;15.57;62.44
68804;SHT31;55787;52.678;13.314;2023-01-01T11:18:11;15.55;62.10
68804;SHT31;55787;52.678;13.314;2023-01-01T11:20:39;15.60;61.90
68804;SHT31;55787;52.678;13.314;2023-01-01T11:23:40;15.60;62.42
68804;SHT31;55787;52.678;13.314;2023-01-01T11:31:44;15.74;62.02
68804;SHT31;55787;52.678;13.314;2023-01-01T11:34:37;15.74;61.73
68804;SHT31;55787;52.678;13.314;2023-01-01T11:37:26;15.74;61.99
68804;SHT31;55787;52.678;13.314;2023-01-01T11:39:55;15.70;61.80
68804;SHT31;55787;52.678;13.314;2023-01-01T11:42:26;15.74;61.88
68804;SHT31;55787;52.678;13.314;2023-01-01T11:44:56;15.70;61.95
68804;SHT31;55787;52.678;13.314;2023-01-01T11:52:48;15.72;62.50
68804;SHT31;55787;52.678;13.314;2023-01-01T11:55:36;15.68;62.60
68804;SHT31;55787;52.678;13.314;2023-01-01T12:00:47;15.64;62.37
68804;SHT31;55787;52.678;13.314;2023-01-01T12:03:24;15.61;62.40
68804;SHT31;55787;52.678;13.314;2023-01-01T12:06:23;15.58;62.76
68804;SHT31;55787;52.678;13.314;2023-01-01T12:09:03;15.58;62.60
68804;SHT31;55787;52.678;13.314;2023-01-01T12:11:40;15.55;62.50
68804;SHT31;55787;52.678;13.314;2023-01-01T12:14:16;15.54;62.51
68804;SHT31;55787;52.678;13.314;2023-01-01T12:16:55;15.55;62.81
68804;SHT31;55787;52.678;13.314;2023-01-01T12:19:29;15.63;63.07
68804;SHT31;55787;52.678;13.314;2023-01-01T12:21:58;15.58;62.61
68804;SHT31;55787;52.678;13.314;2023-01-01T12:24:33;15.60;62.38
68804;SHT31;55787;52.678;13.314;2023-01-01T12:31:02;15.61;62.53
68804;SHT31;55787;52.678;13.314;2023-01-01T12:33:26;15.61;62.15
68804;SHT31;55787;52.678;13.314;2023-01-01T12:36:09;15.67;62.35
68804;SHT31;55787;52.678;13.314;2023-01-01T12:57:58;15.50;63.19
68804;SHT31;55787;52.678;13.314;2023-01-01T13:00:30;15.53;63.03
68804;SHT31;55787;52.678;13.314;2023-01-01T13:03:02;15.47;63.07
68804;SHT31;55787;52.678;13.314;2023-01-01T13:05:39;15.47;63.15
68804;SHT31;55787;52.678;13.314;2023-01-01T13:08:06;15.46;63.76
68804;SHT31;55787;52.678;13.314;2023-01-01T13:10:42;15.41;63.41
68804;SHT31;55787;52.678;13.314;2023-01-01T13:13:11;15.40;63.83
68804;SHT31;55787;52.678;13.314;2023-01-01T13:21:03;15.26;64.12
68804;SHT31;55787;52.678;13.314;2023-01-01T13:37:24;15.24;64.42
68804;SHT31;55787;52.678;13.314;2023-01-01T13:40:03;15.19;64.53
68804;SHT31;55787;52.678;13.314;2023-01-01T13:42:46;15.22;64.62
68804;SHT31;55787;52.678;13.314;2023-01-01T13:45:33;15.10;65.65
68804;SHT31;55787;52.678;13.314;2023-01-01T14:03:26;14.98;65.60
68804;SHT31;55787;52.678;13.314;2023-01-01T14:05:56;15.02;65.52
68804;SHT31;55787;52.678;13.314;2023-01-01T14:08:31;14.93;65.58
68804;SHT31;55787;52.678;13.314;2023-01-01T14:10:59;14.92;65.87
68804;SHT31;55787;52.678;13.314;2023-01-01T14:13:29;14.88;66.08
68804;SHT31;55787;52.678;13.314;2023-01-01T14:16:00;14.85;65.91
68804;SHT31;55787;52.678;13.314;2023-01-01T14:18:51;14.79;66.15
68804;SHT31;55787;52.678;13.314;2023-01-01T14:21:22;14.68;66.70
68804;SHT31;55787;52.678;13.314;2023-01-01T14:26:19;14.57;67.42
68804;SHT31;55787;52.678;13.314;2023-01-01T14:28:46;14.54;67.36
68804;SHT31;55787;52.678;13.314;2023-01-01T14:31:34;14.51;67.46
68804;SHT31;55787;52.678;13.314;2023-01-01T14:34:25;14.57;66.99
68804;SHT31;55787;52.678;13.314;2023-01-01T14:36:54;14.55;67.74
68804;SHT31;55787;52.678;13.314;2023-01-01T14:39:28;14.51;67.45
68804;SHT31;55787;52.678;13.314;2023-01-01T14:42:15;14.52;67.58
68804;SHT31;55787;52.678;13.314;2023-01-01T14:44:45;14.60;67.11
68804;SHT31;55787;52.678;13.314;2023-01-01T14:47:29;14.54;67.46
68804;SHT31;55787;52.678;13.314;2023-01-01T14:50:03;14.49;67.49
68804;SHT31;55787;52.678;13.314;2023-01-01T14:52:32;14.46;68.62
68804;SHT31;55787;52.678;13.314;2023-01-01T14:55:01;14.45;68.88
68804;SHT31;55787;52.678;13.314;2023-01-01T14:57:31;14.40;69.76
68804;SHT31;55787;52.678;13.314;2023-01-01T14:59:59;14.30;70.35
68804;SHT31;55787;52.678;13.314;2023-01-01T15:02:28;14.18;70.76
68804;SHT31;55787;52.678;13.314;2023-01-01T15:04:57;13.99;71.77
68804;SHT31;55787;52.678;13.314;2023-01-01T15:07:25;13.82;71.90
68804;SHT31;55787;52.678;13.314;2023-01-01T15:09:55;13.76;72.42
68804;SHT31;55787;52.678;13.314;2023-01-01T15:12:22;13.59;72.77
68804;SHT31;55787;52.678;13.314;2023-01-01T15:14:51;13.45;73.68
68804;SHT31;55787;52.678;13.314;2023-01-01T15:17:23;13.35;74.20
68804;SHT31;55787;52.678;13.314;2023-01-01T15:20:18;13.25;74.67
68804;SHT31;55787;52.678;13.314;2023-01-01T15:22:45;13.22;75.09
68804;SHT31;55787;52.678;13.314;2023-01-01T15:25:14;13.11;75.26
68804;SHT31;55787;52.678;13.314;2023-01-01T15:27:41;12.98;75.76
68804;SHT31;55787;52.678;13.314;2023-01-01T15:30:30;12.85;76.17
68804;SHT31;55787;52.678;13.314;2023-01-01T15:33:06;12.84;76.63
68804;SHT31;55787;52.678;13.314;2023-01-01T15:35:33;12.76;76.78
68804;SHT31;55787;52.678;13.314;2023-01-01T15:38:13;12.76;76.84
68804;SHT31;55787;52.678;13.314;2023-01-01T15:40:42;12.71;76.87
68804;SHT31;55787;52.678;13.314;2023-01-01T15:43:26;12.67;77.16
68804;SHT31;55787;52.678;13.314;2023-01-01T15:45:58;12.67;77.47
68804;SHT31;55787;52.678;13.314;2023-01-01T15:48:32;12.61;77.43
68804;SHT31;55787;52.678;13.314;2023-01-01T15:51:05;12.53;77.56
68804;SHT31;55787;52.678;13.314;2023-01-01T15:53:48;12.56;77.54
68804;SHT31;55787;52.678;13.314;2023-01-01T15:56:16;12.54;77.87
68804;SHT31;55787;52.678;13.314;2023-01-01T15:58:59;12.43;77.84
68804;SHT31;55787;52.678;13.314;2023-01-01T16:01:35;12.23;78.39
68804;SHT31;55787;52.678;13.314;2023-01-01T16:04:19;12.06;79.07
68804;SHT31;55787;52.678;13.314;2023-01-01T16:06:54;11.95;79.28
68804;SHT31;55787;52.678;13.314;2023-01-01T16:09:22;11.86;79.74
68804;SHT31;55787;52.678;13.314;2023-01-01T16:11:54;11.71;80.41
68804;SHT31;55787;52.678;13.314;2023-01-01T16:14:22;11.64;80.53
68804;SHT31;55787;52.678;13.314;2023-01-01T16:16:52;11.58;81.10
68804;SHT31;55787;52.678;13.314;2023-01-01T16:19:20;11.57;80.74
68804;SHT31;55787;52.678;13.314;2023-01-01T16:21:47;11.41;81.08
68804;SHT31;55787;52.678;13.314;2023-01-01T16:24:16;11.28;81.61
68804;SHT31;55787;52.678;13.314;2023-01-01T16:26:43;11.17;81.81
68804;SHT31;55787;52.678;13.314;2023-01-01T16:29:10;11.04;82.21
68804;SHT31;55787;52.678;13.314;2023-01-01T16:31:37;10.95;82.56
68804;SHT31;55787;52.678;13.314;2023-01-01T16:34:04;10.88;82.93
68804;SHT31;55787;52.678;13.314;2023-01-01T16:36:31;10.82;83.42
68804;SHT31;55787;52.678;13.314;2023-01-01T16:38:58;10.79;83.98
68804;SHT31;55787;52.678;13.314;2023-01-01T16:41:27;10.69;84.19
68804;SHT31;55787;52.678;13.314;2023-01-01T16:43:55;10.65;84.56
68804;SHT31;55787;52.678;13.314;2023-01-01T16:46:23;10.58;84.93
68804;SHT31;55787;52.678;13.314;2023-01-01T16:48:50;10.52;85.02
68804;SHT31;55787;52.678;13.314;2023-01-01T16:51:22;10.49;85.29
68804;SHT31;55787;52.678;13.314;2023-01-01T16:53:49;10.45;85.40
68804;SHT31;55787;52.678;13.314;2023-01-01T16:56:16;10.46;85.43
68804;SHT31;55787;52.678;13.314;2023-01-01T16:58:43;10.45;85.53
68804;SHT31;55787;52.678;13.314;2023-01-01T17:01:16;10.41;85.62
68804;SHT31;55787;52.678;13.314;2023-01-01T17:03:42;10.38;85.65
68804;SHT31;55787;52.678;13.314;2023-01-01T17:06:09;10.32;85.93
68804;SHT31;55787;52.678;13.314;2023-01-01T17:08:37;10.27;86.02
68804;SHT31;55787;52.678;13.314;2023-01-01T17:11:15;10.21;86.12
68804;SHT31;55787;52.678;13.314;2023-01-01T17:13:44;10.15;86.83
68804;SHT31;55787;52.678;13.314;2023-01-01T17:16:11;10.10;86.57
68804;SHT31;55787;52.678;13.314;2023-01-01T17:18:48;10.01;86.60
68804;SHT31;55787;52.678;13.314;2023-01-01T17:21:35;9.94;86.79
68804;SHT31;55787;52.678;13.314;2023-01-01T17:24:01;9.90;87.29
68804;SHT31;55787;52.678;13.314;2023-01-01T17:26:28;9.84;87.57
68804;SHT31;55787;52.678;13.314;2023-01-01T17:28:55;10.00;88.18
68804;SHT31;55787;52.678;13.314;2023-01-01T17:31:26;10.30;87.23
68804;SHT31;55787;52.678;13.314;2023-01-01T17:33:55;10.28;86.97
68804;SHT31;55787;52.678;13.314;2023-01-01T17:36:22;10.34;87.49
68804;SHT31;55787;52.678;13.314;2023-01-01T17:38:48;10.31;86.49